Time;durP1;ratioP1;P1;durP2;ratioP2;P2;SDS_P1;SDS_P2;PMS_P1;PMS_P2;Temp;Humidity;BMP_temperature;BMP_pressure;BME280_temperature;BME280_humidity;BME280_pressure;Samples;Min_cycle;Max_cycle;Signal;HPM_P1;HPM_P2
2022/01/23 00:02:19;;;;;;;8.77;4.25;;;;;;;-6.36;100.00;90942.59;5050846;28;20094;-66
2022/01/23 00:04:45;;;;;;;5.07;3.30;;;;;;;-6.60;100.00;90929.59;5050749;28;20052;-66
2022/01/23 00:07:13;;;;;;;7.50;4.03;;;;;;;-6.50;100.00;90942.88;5050812;28;20388;-66
2022/01/23 00:09:39;;;;;;;9.50;4.15;;;;;;;-6.56;100.00;90944.50;5050835;28;20482;-66
2022/01/23 00:12:11;;;;;;;7.28;4.53;;;;;;;-6.56;100.00;90936.72;5050629;28;20037;-69
2022/01/23 00:17:20;;;;;;;9.95;4.13;;;;;;;-6.69;100.00;90941.97;5050623;28;20113;-66
2022/01/23 00:20:07;;;;;;;9.40;4.90;;;;;;;-6.75;100.00;90937.63;5050738;28;20104;-66
2022/01/23 00:30:29;;;;;;;7.32;3.55;;;;;;;-6.64;100.00;90942.13;5050621;28;20036;-66
2022/01/23 00:33:00;;;;;;;8.88;5.00;;;;;;;-6.58;100.00;90937.94;5050572;28;20422;-66
2022/01/23 00:35:28;;;;;;;8.75;4.78;;;;;;;-6.62;100.00;90936.78;5054583;28;20108;-66
2022/01/23 00:37:54;;;;;;;7.43;4.05;;;;;;;-6.83;100.00;90937.84;5054389;28;20453;-66
2022/01/23 00:40:20;;;;;;;6.20;3.72;;;;;;;-6.85;100.00;90926.91;5054442;28;20043;-66
2022/01/23 00:42:46;;;;;;;7.43;4.18;;;;;;;-6.79;100.00;90934.63;5054316;28;20104;-66
2022/01/23 00:47:40;;;;;;;8.32;5.40;;;;;;;-6.74;100.00;90929.66;5201672;22;20107;-64
2022/01/23 00:50:06;;;;;;;8.32;5.20;;;;;;;-6.71;100.00;90934.41;5054344;28;20458;-64
2022/01/23 00:52:32;;;;;;;9.43;4.18;;;;;;;-6.76;100.00;90936.84;5054374;28;20035;-64
2022/01/23 00:55:00;;;;;;;7.32;4.30;;;;;;;-6.75;100.00;90937.63;5054357;28;20052;-65
2022/01/23 00:57:26;;;;;;;5.97;3.80;;;;;;;-6.76;100.00;90934.25;5054337;28;20037;-65
2022/01/23 00:59:51;;;;;;;6.45;3.85;;;;;;;-6.71;100.00;90947.34;5054307;28;20040;-65
2022/01/23 01:02:17;;;;;;;8.38;4.40;;;;;;;-6.68;100.00;90946.94;5054437;28;20025;-65
2022/01/23 01:04:42;;;;;;;6.93;4.30;;;;;;;-6.68;100.00;90941.75;5054214;28;20036;-65
2022/01/23 01:07:08;;;;;;;7.18;4.53;;;;;;;-6.56;100.00;90948.88;5054081;28;20028;-65
2022/01/23 01:09:33;;;;;;;5.38;4.00;;;;;;;-6.47;97.13;90955.38;5054008;28;20033;-65
2022/01/23 01:12:03;;;;;;;9.05;4.07;;;;;;;-6.48;95.54;90954.59;5054056;28;20056;-66
2022/01/23 01:35:39;;;;;;;6.95;3.47;;;;;;;-6.98;95.14;90938.09;5053825;28;20580;-65
2022/01/23 01:38:05;;;;;;;4.63;2.80;;;;;;;-6.91;94.28;90943.25;5053345;28;20095;-65
2022/01/23 01:40:30;;;;;;;6.63;3.33;;;;;;;-6.92;94.46;90931.31;5053498;28;20163;-65
2022/01/23 01:42:56;;;;;;;4.82;3.13;;;;;;;-6.86;94.24;90946.00;5053365;28;20033;-65
2022/01/23 01:45:28;;;;;;;7.20;3.42;;;;;;;-6.92;93.73;90947.63;5053291;28;20105;-65
2022/01/23 01:47:56;;;;;;;6.38;3.25;;;;;;;-6.89;93.76;90951.59;5053057;28;20072;-65
2022/01/23 01:50:22;;;;;;;5.10;3.20;;;;;;;-6.88;92.86;90955.78;5053315;28;20025;-65
2022/01/23 01:52:48;;;;;;;5.85;3.30;;;;;;;-6.84;91.69;90954.34;5053290;28;20033;-65
2022/01/23 01:55:22;;;;;;;5.28;3.08;;;;;;;-7.10;93.82;90950.88;5053172;28;20040;-65
2022/01/23 01:57:55;;;;;;;6.15;3.25;;;;;;;-7.21;96.12;90956.66;5053182;28;20084;-65
2022/01/23 02:08:29;;;;;;;5.22;3.13;;;;;;;-7.32;97.67;90945.16;5052868;28;20504;-65
2022/01/23 02:11:06;;;;;;;5.68;2.60;;;;;;;-7.27;97.84;90944.53;5052906;28;20021;-65
2022/01/23 02:13:37;;;;;;;3.67;2.58;;;;;;;-7.34;97.76;90949.72;5052836;28;20035;-64
2022/01/23 02:57:21;;;;;;;3.72;2.80;;;;;;;-6.99;97.06;90957.97;5051396;28;20075;-65
2022/01/23 02:59:49;;;;;;;6.20;3.15;;;;;;;-7.04;97.38;90968.16;5051930;28;20024;-65
2022/01/23 03:02:28;;;;;;;5.63;2.80;;;;;;;-7.26;97.96;90971.97;5052230;28;20041;-65
2022/01/23 03:04:59;;;;;;;5.65;3.00;;;;;;;-7.26;99.70;90966.78;5051849;28;20502;-65
2022/01/23 03:10:17;;;;;;;3.20;2.53;;;;;;;-7.37;100.00;90962.25;5052047;28;20028;-65
2022/01/23 03:15:29;;;;;;;36.88;12.80;;;;;;;-7.48;100.00;90963.66;5051696;28;20036;-65
2022/01/23 03:29:00;;;;;;;9.45;4.57;;;;;;;-7.71;100.00;90973.63;5051358;28;20044;-65
2022/01/23 03:31:24;;;;;;;8.50;4.32;;;;;;;-7.79;100.00;90969.44;5051149;28;20414;-65
2022/01/23 03:33:51;;;;;;;7.63;4.20;;;;;;;-7.69;100.00;90971.63;5051382;28;20033;-65
2022/01/23 03:36:17;;;;;;;7.22;4.40;;;;;;;-7.67;100.00;90975.59;5051407;28;20025;-65
2022/01/23 03:38:43;;;;;;;10.80;4.93;;;;;;;-7.76;100.00;90981.94;5051182;28;20036;-65
2022/01/23 03:41:09;;;;;;;9.18;4.68;;;;;;;-7.77;100.00;90987.31;5051265;28;20024;-65
2022/01/23 03:43:38;;;;;;;8.00;4.63;;;;;;;-7.61;100.00;90982.53;5051417;28;20148;-65
2022/01/23 03:51:36;;;;;;;5.28;4.05;;;;;;;-7.50;100.00;90988.09;5051167;28;20485;-65
2022/01/23 03:54:02;;;;;;;9.60;4.72;;;;;;;-7.47;100.00;90988.50;5051090;28;20049;-65
2022/01/23 03:56:30;;;;;;;10.55;3.92;;;;;;;-7.46;100.00;90977.16;5051049;28;20458;-65
2022/01/23 03:58:57;;;;;;;10.45;4.93;;;;;;;-7.48;100.00;90979.16;5050873;28;20091;-65
2022/01/23 04:01:22;;;;;;;12.45;6.03;;;;;;;-7.71;100.00;90983.94;5050921;28;20096;-65
2022/01/23 04:03:48;;;;;;;5.90;4.03;;;;;;;-7.73;100.00;90983.31;5050997;28;20113;-65
2022/01/23 04:06:14;;;;;;;9.85;3.65;;;;;;;-7.77;100.00;90984.72;5051011;28;20029;-65
2022/01/23 04:08:39;;;;;;;8.15;3.95;;;;;;;-7.72;100.00;90983.16;5052183;28;20045;-65
2022/01/23 04:11:05;;;;;;;6.03;3.40;;;;;;;-7.59;100.00;90987.50;5055149;28;20033;-65
2022/01/23 04:13:43;;;;;;;12.05;4.35;;;;;;;-7.74;100.00;90995.44;5055049;28;20029;-65
2022/01/23 04:31:41;;;;;;;8.65;4.00;;;;;;;-7.67;100.00;90996.25;5055003;28;20060;-65
2022/01/23 04:33:11;;;;;;;13.77;5.85;;;;;;;-7.74;100.00;90994.66;5054670;28;20036;-65
2022/01/23 04:59:34;;;;;;;6.65;3.80;;;;;;;-7.64;100.00;91001.03;5054296;28;20048;-65
2022/01/23 04:59:45;;;;;;;7.07;3.72;;;;;;;-7.68;100.00;91015.31;5054216;28;20071;-65
2022/01/23 05:05:08;;;;;;;9.85;4.82;;;;;;;-7.61;100.00;91016.13;4999197;28;20124;-65
2022/01/23 05:07:34;;;;;;;8.98;4.55;;;;;;;-7.61;100.00;91010.94;5053996;28;20104;-65
2022/01/23 05:10:00;;;;;;;10.57;5.43;;;;;;;-7.71;100.00;91010.56;5054323;28;20493;-65
2022/01/23 05:12:30;;;;;;;9.75;4.75;;;;;;;-7.67;100.00;91016.91;5054002;28;20463;-65
2022/01/23 05:14:56;;;;;;;4.43;3.10;;;;;;;-7.94;100.00;91015.28;5053957;28;20032;-65
2022/01/23 05:17:23;;;;;;;3.65;2.75;;;;;;;-8.13;100.00;91027.19;5052357;28;20395;-65
2022/01/23 05:19:48;;;;;;;5.82;3.72;;;;;;;-8.24;100.00;91031.13;5053344;28;20458;-65
2022/01/23 05:24:53;;;;;;;4.78;3.03;;;;;;;-8.39;100.00;91045.19;5053757;28;20041;-65
2022/01/23 05:27:23;;;;;;;8.82;4.28;;;;;;;-8.35;100.00;91036.09;5053672;28;20024;-65
2022/01/23 05:29:50;;;;;;;7.78;3.40;;;;;;;-8.24;100.00;91046.59;5053651;28;20029;-65
2022/01/23 05:32:16;;;;;;;3.55;2.40;;;;;;;-8.16;100.00;91059.34;5053638;28;20025;-65
2022/01/23 05:34:43;;;;;;;7.65;3.35;;;;;;;-8.13;100.00;91057.34;5053898;28;20082;-65
2022/01/23 05:37:09;;;;;;;7.60;3.88;;;;;;;-8.10;100.00;91062.91;5053406;28;20017;-65
2022/01/23 05:39:35;;;;;;;7.03;3.80;;;;;;;-8.05;100.00;91065.69;5053525;28;20037;-66
2022/01/23 05:42:09;;;;;;;11.63;3.95;;;;;;;-8.08;100.00;91057.56;5052158;28;20112;-65
2022/01/23 05:44:36;;;;;;;9.57;5.25;;;;;;;-8.04;100.00;91061.38;5053471;28;20479;-65
2022/01/23 05:47:02;;;;;;;5.95;4.22;;;;;;;-7.99;100.00;91062.34;5053391;28;20033;-66
2022/01/23 05:49:28;;;;;;;5.65;3.08;;;;;;;-8.01;100.00;91051.44;5053127;28;20120;-65
2022/01/23 05:51:54;;;;;;;7.20;3.88;;;;;;;-8.02;100.00;91061.97;5053569;28;20154;-65
2022/01/23 05:54:19;;;;;;;6.95;4.38;;;;;;;-8.10;100.00;91062.91;5053548;28;20497;-65
2022/01/23 05:56:46;;;;;;;6.85;4.00;;;;;;;-8.06;100.00;91073.63;5053207;28;20036;-65
2022/01/23 05:59:12;;;;;;;6.72;3.80;;;;;;;-8.02;100.00;91080.03;5053047;28;20025;-65
2022/01/23 06:01:38;;;;;;;9.05;4.32;;;;;;;-8.03;100.00;91081.03;5053109;28;20028;-65
2022/01/23 06:04:04;;;;;;;9.05;5.20;;;;;;;-7.97;100.00;91075.06;5053097;28;20033;-65
2022/01/23 06:06:29;;;;;;;4.88;2.78;;;;;;;-7.82;100.00;91083.44;5053074;28;20035;-65
2022/01/23 06:08:55;;;;;;;9.45;4.40;;;;;;;-7.69;100.00;91083.47;5052945;28;20037;-65
2022/01/23 06:11:20;;;;;;;8.75;5.32;;;;;;;-7.64;100.00;91094.00;5052916;28;20025;-66
2022/01/23 06:13:46;;;;;;;8.15;3.50;;;;;;;-7.63;98.70;91105.91;5052921;28;20108;-65
2022/01/23 06:16:11;;;;;;;7.72;3.80;;;;;;;-7.50;98.16;91094.81;5052899;28;20055;-64
2022/01/23 06:18:39;;;;;;;11.38;4.57;;;;;;;-7.33;97.20;91095.22;5051407;28;20112;-65
2022/01/23 06:21:04;;;;;;;7.47;4.22;;;;;;;-7.34;94.73;91099.59;5052777;28;20410;-65
2022/01/23 06:23:31;;;;;;;5.85;4.10;;;;;;;-7.34;94.70;91094.44;5052658;28;20029;-65
2022/01/23 06:25:57;;;;;;;5.65;3.70;;;;;;;-7.28;93.22;91100.59;5052948;28;20535;-65
2022/01/23 06:28:49;;;;;;;10.15;5.57;;;;;;;-7.16;91.13;91098.22;5052644;28;20029;-66
2022/01/23 06:31:14;;;;;;;13.73;5.78;;;;;;;-7.14;90.81;91098.78;5051758;28;20466;-65
2022/01/23 06:33:40;;;;;;;6.35;4.75;;;;;;;-7.04;90.15;91100.00;5052487;28;20445;-66
2022/01/23 06:36:05;;;;;;;9.07;4.90;;;;;;;-7.04;88.58;91102.59;5052497;28;20032;-65
2022/01/23 06:38:31;;;;;;;14.25;6.10;;;;;;;-7.00;88.42;91108.16;5052297;28;20025;-65
2022/01/23 06:40:56;;;;;;;7.20;4.28;;;;;;;-7.04;87.07;91094.81;5042750;28;21026;-67
2022/01/23 06:43:22;;;;;;;7.18;4.70;;;;;;;-6.99;86.69;91101.97;5031113;28;20104;-67
2022/01/23 06:45:47;;;;;;;9.27;5.18;;;;;;;-6.98;86.81;91094.00;5030222;28;20145;-67
2022/01/23 06:48:13;;;;;;;9.43;5.47;;;;;;;-7.12;86.04;91095.00;5043070;28;20064;-67
2022/01/23 06:50:38;;;;;;;10.30;5.07;;;;;;;-7.35;85.90;91098.00;5044936;28;20513;-67
2022/01/23 06:53:04;;;;;;;8.38;4.90;;;;;;;-7.51;85.85;91097.59;5051451;28;20482;-67
2022/01/23 06:55:29;;;;;;;9.13;4.38;;;;;;;-7.55;87.35;91110.91;5050463;28;20040;-67
2022/01/23 06:57:55;;;;;;;11.10;5.53;;;;;;;-7.59;87.21;91109.69;5050501;28;20041;-67
2022/01/23 07:00:21;;;;;;;15.35;7.35;;;;;;;-7.47;87.20;91096.19;5050567;28;20021;-67
2022/01/23 07:02:46;;;;;;;8.77;5.10;;;;;;;-7.38;85.16;91108.75;5043938;28;20475;-68
2022/01/23 07:05:12;;;;;;;9.40;5.22;;;;;;;-7.22;85.05;91112.72;5048052;28;20029;-66
2022/01/23 07:07:37;;;;;;;7.85;3.85;;;;;;;-7.17;83.71;91107.75;5051019;28;20029;-67
2022/01/23 07:10:03;;;;;;;8.77;4.07;;;;;;;-7.24;83.48;91099.22;5050774;28;20029;-66
2022/01/23 07:12:29;;;;;;;8.68;4.38;;;;;;;-7.42;82.94;91102.34;5049958;28;20572;-67
2022/01/23 07:14:54;;;;;;;7.68;4.10;;;;;;;-7.52;84.80;91094.22;5051068;28;20108;-68
2022/01/23 07:17:21;;;;;;;9.82;5.55;;;;;;;-7.53;84.74;91099.59;5046020;28;20041;-67
2022/01/23 07:19:47;;;;;;;8.75;4.97;;;;;;;-7.41;84.58;91098.00;5039613;28;20037;-67
2022/01/23 07:22:13;;;;;;;12.35;6.80;;;;;;;-6.66;82.01;91096.75;5039129;28;20017;-68
2022/01/23 07:24:38;;;;;;;12.48;6.15;;;;;;;-6.36;77.22;91097.88;5040894;28;20036;-69
2022/01/23 07:27:13;;;;;;;14.18;6.65;;;;;;;-5.32;75.37;91073.44;5039534;28;20022;-68
2022/01/23 07:29:41;;;;;;;9.32;5.90;;;;;;;-4.61;69.18;91085.22;5039906;28;20079;-69
2022/01/23 07:32:08;;;;;;;6.88;3.60;;;;;;;-4.37;67.58;91078.41;5039329;28;20453;-69
2022/01/23 07:34:34;;;;;;;10.80;4.03;;;;;;;-3.57;63.98;91081.66;5040569;28;20417;-69
2022/01/23 07:36:59;;;;;;;5.88;3.55;;;;;;;-4.16;64.83;91077.97;5039745;28;20207;-69
2022/01/23 07:39:25;;;;;;;6.38;4.10;;;;;;;-4.09;66.11;91091.69;5039678;28;20123;-69
2022/01/23 07:41:51;;;;;;;5.70;4.07;;;;;;;-3.44;64.62;91091.88;5039791;28;20616;-69
2022/01/23 07:44:17;;;;;;;5.63;3.92;;;;;;;-4.77;65.99;91091.75;5039364;28;20018;-70
2022/01/23 07:46:43;;;;;;;4.95;3.90;;;;;;;-5.03;67.81;91099.75;5039477;28;20078;-70
2022/01/23 07:49:09;;;;;;;7.80;5.22;;;;;;;-5.06;67.83;91102.75;5039757;28;20127;-70
2022/01/23 07:51:35;;;;;;;9.68;6.38;;;;;;;-5.08;67.91;91097.78;5039015;28;20029;-70
2022/01/23 07:54:01;;;;;;;8.55;4.78;;;;;;;-4.76;67.83;91093.31;5039947;28;20111;-69
2022/01/23 07:56:27;;;;;;;5.82;4.85;;;;;;;-4.43;67.07;91097.41;5037238;28;20068;-69
2022/01/23 07:58:52;;;;;;;7.50;4.30;;;;;;;-4.84;66.96;91093.63;5038057;28;20471;-70
2022/01/23 08:01:18;;;;;;;8.00;4.43;;;;;;;-4.86;66.38;91077.47;5039767;28;20029;-69
2022/01/23 08:03:43;;;;;;;13.95;7.45;;;;;;;-5.11;67.79;91093.03;5037079;28;20108;-71
2022/01/23 08:06:12;;;;;;;6.32;3.65;;;;;;;-3.95;65.36;91090.50;5038794;28;20081;-70
2022/01/23 08:08:38;;;;;;;10.48;5.65;;;;;;;-1.83;61.39;91095.06;5036060;28;20021;-69
2022/01/23 08:11:05;;;;;;;7.93;4.10;;;;;;;1.14;54.16;91084.31;5037431;28;20036;-71
2022/01/23 08:13:30;;;;;;;7.10;4.75;;;;;;;1.73;50.11;91082.44;5041268;28;20052;-70
2022/01/23 08:15:56;;;;;;;6.93;5.00;;;;;;;0.65;51.89;91086.97;5038367;28;20483;-70
2022/01/23 08:18:21;;;;;;;7.20;4.30;;;;;;;0.43;51.61;91091.38;5038111;28;20057;-70
2022/01/23 08:20:47;;;;;;;6.47;4.13;;;;;;;0.66;52.83;91083.31;5040841;28;20115;-69
2022/01/23 08:23:13;;;;;;;6.93;4.07;;;;;;;0.55;53.18;91082.38;5039015;28;20028;-69
2022/01/23 08:25:39;;;;;;;6.80;4.15;;;;;;;-1.44;55.48;91100.50;5038513;28;20078;-70
2022/01/23 08:28:07;;;;;;;22.80;9.25;;;;;;;-2.54;58.51;91096.13;5040480;28;20048;-70
2022/01/23 08:30:32;;;;;;;37.22;12.95;;;;;;;-3.22;60.27;91099.97;5050274;28;20021;-69
2022/01/23 08:32:59;;;;;;;20.63;7.90;;;;;;;-2.97;59.82;91101.63;5050349;28;20047;-73
2022/01/23 08:35:26;;;;;;;28.48;11.25;;;;;;;-3.75;61.35;91094.69;5050109;28;20052;-70
2022/01/23 08:37:52;;;;;;;32.25;10.93;;;;;;;-4.41;64.38;91105.81;5049766;28;20033;-69
2022/01/23 08:40:23;;;;;;;11.57;5.28;;;;;;;-4.70;65.04;91105.47;5049289;28;20037;-70
2022/01/23 08:42:50;;;;;;;12.73;5.80;;;;;;;-5.00;66.58;91105.31;5049418;28;20033;-71
2022/01/23 08:45:15;;;;;;;7.82;5.50;;;;;;;-4.83;66.87;91108.16;5048693;28;20483;-69
2022/01/23 08:47:41;;;;;;;9.43;5.20;;;;;;;-4.80;65.74;91125.13;5049636;28;20049;-70
2022/01/23 08:50:07;;;;;;;15.68;6.93;;;;;;;-5.18;67.48;91113.81;5049329;28;20029;-70
2022/01/23 08:52:33;;;;;;;6.82;4.53;;;;;;;-5.53;69.44;91125.59;5050120;28;20037;-69
2022/01/23 08:54:59;;;;;;;9.07;5.65;;;;;;;-5.51;69.71;91116.63;5051098;28;20056;-70
2022/01/23 08:57:25;;;;;;;13.25;7.53;;;;;;;-5.26;70.45;91114.06;5053496;28;20466;-69
2022/01/23 08:59:51;;;;;;;9.35;5.28;;;;;;;-5.21;70.68;91122.03;5053752;28;20048;-69
2022/01/23 09:02:18;;;;;;;11.63;6.55;;;;;;;-5.15;70.19;91107.41;5038461;28;20120;-70
2022/01/23 09:04:45;;;;;;;11.18;5.90;;;;;;;-5.15;70.82;91123.78;5032090;28;20044;-69
2022/01/23 09:07:11;;;;;;;11.95;6.72;;;;;;;-5.16;71.51;91121.38;5045641;28;20049;-70
2022/01/23 09:09:39;;;;;;;8.13;5.32;;;;;;;-5.30;72.08;91114.69;5049365;28;20110;-68
2022/01/23 09:14:54;;;;;;;9.70;5.20;;;;;;;-5.34;75.47;91110.94;5042494;28;20477;-69
2022/01/23 09:17:19;;;;;;;11.32;5.68;;;;;;;-4.85;76.65;91117.97;5043160;28;20067;-70
2022/01/23 09:19:47;;;;;;;14.40;6.95;;;;;;;-4.84;78.66;91122.94;5043134;28;20032;-70
2022/01/23 09:22:13;;;;;;;8.45;6.55;;;;;;;-5.12;80.00;91117.38;5043397;28;20487;-69
2022/01/23 09:24:38;;;;;;;8.93;5.95;;;;;;;-5.03;82.00;91115.31;5052468;28;20033;-70
2022/01/23 09:27:07;;;;;;;13.48;5.72;;;;;;;-4.89;81.64;91102.03;5051089;28;20529;-70
2022/01/23 09:29:40;;;;;;;13.40;7.55;;;;;;;-4.97;83.75;91104.88;5053021;28;20052;-70
2022/01/23 09:32:10;;;;;;;8.75;5.18;;;;;;;-5.26;84.01;91103.69;5053126;28;20037;-69
2022/01/23 09:34:36;;;;;;;11.30;5.90;;;;;;;-5.35;85.36;91099.00;5052201;28;20047;-69
2022/01/23 09:37:04;;;;;;;9.70;5.43;;;;;;;-4.92;84.82;91105.03;5052669;28;20036;-69
2022/01/23 09:39:31;;;;;;;9.77;5.13;;;;;;;-5.16;85.81;91096.25;5051770;28;20048;-70
2022/01/23 09:42:10;;;;;;;9.23;5.40;;;;;;;-5.27;86.95;91101.31;5051805;28;20041;-69
2022/01/23 09:45:05;;;;;;;9.45;5.28;;;;;;;-5.53;86.16;91099.66;5052911;28;20041;-70
2022/01/23 09:47:32;;;;;;;8.25;5.28;;;;;;;-5.75;89.13;91094.81;5045495;28;20115;-69
2022/01/23 09:50:00;;;;;;;7.65;4.65;;;;;;;-5.98;92.59;91089.41;5048096;28;20547;-68
2022/01/23 09:52:29;;;;;;;11.43;6.45;;;;;;;-6.05;98.90;91093.78;5052654;28;20040;-70
2022/01/23 09:54:57;;;;;;;10.13;5.85;;;;;;;-6.09;99.43;91093.41;5051440;28;20048;-70
2022/01/23 09:57:28;;;;;;;10.48;5.15;;;;;;;-5.94;97.79;91084.59;5052379;28;20071;-70
2022/01/23 09:59:54;;;;;;;8.70;4.38;;;;;;;-6.07;96.87;91088.81;5049272;28;20057;-69
2022/01/23 10:02:21;;;;;;;9.80;6.28;;;;;;;-5.86;97.61;91089.50;5033593;28;20045;-71
2022/01/23 10:04:46;;;;;;;9.25;4.90;;;;;;;-6.17;100.00;91079.91;5032238;28;20059;-70
2022/01/23 10:07:13;;;;;;;11.57;5.93;;;;;;;-5.81;100.00;91084.50;5031421;28;20128;-70
2022/01/23 10:09:39;;;;;;;13.50;6.00;;;;;;;-5.68;99.23;91068.88;5031150;28;20084;-69
2022/01/23 10:12:07;;;;;;;10.32;5.78;;;;;;;-5.51;97.18;91084.72;5032419;28;20653;-69
2022/01/23 10:14:35;;;;;;;14.13;6.38;;;;;;;-5.59;94.63;91066.81;5032456;28;20037;-70
2022/01/23 10:17:01;;;;;;;10.52;6.60;;;;;;;-5.65;94.45;91088.41;5041332;28;20072;-69
2022/01/23 10:19:27;;;;;;;8.27;4.97;;;;;;;-5.57;90.89;91070.78;5052269;28;20071;-69
2022/01/23 10:21:53;;;;;;;13.70;6.85;;;;;;;-5.50;91.42;91068.19;5052154;28;20540;-69
2022/01/23 10:24:18;;;;;;;10.18;6.63;;;;;;;-5.35;91.87;91076.44;5050830;28;20051;-70
2022/01/23 10:26:53;;;;;;;13.60;7.50;;;;;;;-5.29;91.57;91065.22;5051830;28;20119;-69
2022/01/23 10:29:32;;;;;;;11.90;7.38;;;;;;;-5.26;88.37;91064.81;5051574;28;20076;-71
2022/01/23 10:32:21;;;;;;;16.73;8.75;;;;;;;-5.20;89.40;91052.81;5051765;28;20083;-69
2022/01/23 10:34:55;;;;;;;11.75;7.05;;;;;;;-5.39;91.91;91064.88;5051935;28;20037;-69
2022/01/23 10:37:40;;;;;;;8.77;4.80;;;;;;;-5.36;93.91;91061.13;5054835;28;20087;-70
2022/01/23 10:40:22;;;;;;;13.27;6.95;;;;;;;-5.64;94.50;91058.91;5029654;28;20469;-69
2022/01/23 10:46:34;;;;;;;29.80;9.15;;;;;;;-5.66;97.78;91050.53;5031815;28;20466;-70
2022/01/23 10:48:37;;;;;;;40.88;11.10;;;;;;;-5.54;95.78;91041.88;5031204;28;20146;-68
2022/01/23 10:51:27;;;;;;;42.40;13.77;;;;;;;-5.26;94.67;91054.44;5031285;28;20057;-68
2022/01/23 10:54:16;;;;;;;18.08;6.85;;;;;;;-5.07;88.56;91046.69;5030218;28;20037;-66
2022/01/23 10:56:57;;;;;;;23.75;8.70;;;;;;;-5.26;92.49;91048.44;5031471;28;20579;-66
2022/01/23 10:59:24;;;;;;;13.63;7.40;;;;;;;-5.36;89.86;91041.16;5031530;28;20049;-68
2022/01/23 11:01:58;;;;;;;8.88;5.22;;;;;;;-4.75;88.02;91043.00;5029469;28;20050;-65
2022/01/23 11:04:24;;;;;;;14.15;7.50;;;;;;;-4.69;81.61;91034.38;5031223;28;20037;-66
2022/01/23 11:07:00;;;;;;;9.55;4.93;;;;;;;-5.03;81.27;91027.94;5031215;28;20055;-65
2022/01/23 11:09:30;;;;;;;6.07;4.68;;;;;;;-4.79;79.31;91041.06;5029974;28;20041;-65
2022/01/23 11:12:05;;;;;;;8.68;5.47;;;;;;;-5.22;80.41;91037.44;5029994;28;20430;-67
2022/01/23 11:17:23;;;;;;;12.02;6.43;;;;;;;-4.75;76.95;91035.22;5030279;28;20111;-68
2022/01/23 11:19:49;;;;;;;;;;;;;;;-4.77;76.86;91034.66;5031511;28;20041;-67
2022/01/23 11:22:28;;;;;;;5.80;3.85;;;;;;;-4.74;75.47;91016.06;5030778;28;19916;-69
2022/01/23 11:24:58;;;;;;;5.72;3.97;;;;;;;-4.79;75.18;91025.50;5029840;28;20048;-67
2022/01/23 11:27:32;;;;;;;9.05;5.13;;;;;;;-4.60;75.38;91030.50;5030840;28;20128;-67
2022/01/23 11:30:03;;;;;;;7.60;4.13;;;;;;;-4.45;73.09;91011.16;5030826;28;20038;-68
2022/01/23 11:32:35;;;;;;;8.88;4.97;;;;;;;-4.55;73.56;91020.28;5042550;28;20415;-65
2022/01/23 11:35:06;;;;;;;8.02;4.35;;;;;;;-4.56;75.13;91015.28;5042711;28;20037;-66
2022/01/23 11:37:33;;;;;;;8.32;4.70;;;;;;;-4.61;74.90;91005.53;5028912;28;20033;-66
2022/01/23 11:40:05;;;;;;;10.05;5.32;;;;;;;-4.70;77.85;91006.84;5029845;28;20479;-68
2022/01/23 11:56:25;;;;;;;7.93;4.15;;;;;;;-4.90;83.59;91003.66;5030592;28;20127;-67
2022/01/23 11:59:19;;;;;;;17.77;4.55;;;;;;;-4.92;84.01;90984.91;5031842;28;20037;-67
2022/01/23 12:01:47;;;;;;;13.70;6.18;;;;;;;-4.87;85.83;90987.66;5021667;28;20054;-67
2022/01/23 12:04:21;;;;;;;9.65;5.18;;;;;;;-4.83;85.82;90987.00;5029937;28;20124;-66
2022/01/23 12:07:30;;;;;;;7.43;4.43;;;;;;;-4.68;83.12;90986.66;5042273;28;20083;-67
2022/01/23 12:10:27;;;;;;;11.15;7.03;;;;;;;-4.49;81.07;90978.88;5049972;28;20044;-68
2022/01/23 12:13:22;;;;;;;9.10;4.65;;;;;;;-4.32;79.72;90979.84;5043640;28;20033;-67
2022/01/23 12:18:39;;;;;;;8.55;4.90;;;;;;;-4.26;76.07;90985.00;5046991;28;20124;-67
2022/01/23 12:21:04;;;;;;;7.47;4.70;;;;;;;-4.24;74.34;90980.38;5035542;28;20124;-70
2022/01/23 12:23:57;;;;;;;6.43;3.83;;;;;;;-4.38;74.47;90985.94;5048747;28;20061;-67
2022/01/23 12:26:22;;;;;;;8.05;4.15;;;;;;;-4.35;74.17;90982.91;5049920;28;20470;-67
2022/01/23 12:28:48;;;;;;;6.22;3.92;;;;;;;-4.87;76.51;90982.47;5049250;28;20063;-67
2022/01/23 12:31:13;;;;;;;8.27;5.22;;;;;;;-4.66;77.69;90979.44;5053930;28;20062;-67
2022/01/23 12:33:39;;;;;;;5.78;3.97;;;;;;;-4.73;79.03;90989.13;5053972;28;20723;-69
2022/01/23 12:36:24;;;;;;;7.57;3.17;;;;;;;-4.85;78.34;90983.06;5053333;28;20029;-67
2022/01/23 12:39:11;;;;;;;6.32;4.22;;;;;;;-5.00;79.13;90974.81;5053048;28;20044;-69
2022/01/23 12:41:51;;;;;;;6.88;5.00;;;;;;;-5.02;77.20;90982.81;5042889;28;20056;-69
2022/01/23 12:44:23;;;;;;;3.30;2.65;;;;;;;-5.13;75.87;90975.75;5042709;28;20068;-66
2022/01/23 12:46:54;;;;;;;6.63;4.18;;;;;;;-5.24;76.65;90972.03;5053611;28;20047;-69
2022/01/23 12:49:25;;;;;;;3.08;2.47;;;;;;;-5.02;75.87;90964.66;5053583;28;20053;-70
2022/01/23 12:52:15;;;;;;;8.48;3.92;;;;;;;-5.41;76.06;90981.38;5038398;28;20095;-65
2022/01/23 12:54:47;;;;;;;13.00;5.97;;;;;;;-5.07;76.16;90976.69;5034722;28;20049;-69
2022/01/23 12:57:39;;;;;;;8.40;5.53;;;;;;;-5.17;75.87;90972.78;5053767;28;20123;-71
2022/01/23 13:00:24;;;;;;;11.38;6.30;;;;;;;-5.28;74.72;90970.09;5047723;28;20491;-73
2022/01/23 13:02:52;;;;;;;18.42;8.68;;;;;;;-5.24;75.69;90969.44;5042440;28;20034;-72
2022/01/23 13:05:18;;;;;;;21.00;11.48;;;;;;;-5.23;76.28;90978.00;5044003;28;20098;-70
2022/01/23 13:10:55;;;;;;;7.88;4.40;;;;;;;-5.55;77.18;90993.63;5043810;28;20033;-69
2022/01/23 13:32:40;;;;;;;23.48;13.75;;;;;;;-5.70;92.70;90992.34;5032596;28;20040;-70
2022/01/23 13:35:11;;;;;;;34.25;13.93;;;;;;;-5.85;93.83;90992.66;5032879;28;20400;-70
2022/01/23 13:37:40;;;;;;;50.83;17.35;;;;;;;-5.94;97.34;90986.97;5031653;28;20462;-70
2022/01/23 13:40:15;;;;;;;54.88;20.95;;;;;;;-5.79;98.71;90997.81;5032569;28;20044;-71
2022/01/23 13:47:59;;;;;;;13.38;7.63;;;;;;;-5.87;100.00;90992.84;5032775;28;20120;-70
2022/01/23 13:50:02;;;;;;;10.05;5.43;;;;;;;-6.12;100.00;90994.66;5032414;28;20049;-69
2022/01/23 14:02:27;;;;;;;7.75;4.18;;;;;;;-6.27;100.00;90994.13;5051908;28;20087;-69
2022/01/23 14:05:11;;;;;;;9.65;6.20;;;;;;;-6.43;100.00;90995.41;5052276;28;20048;-68
2022/01/23 14:07:39;;;;;;;18.02;7.43;;;;;;;-6.41;100.00;90991.59;5050980;28;20502;-68
2022/01/23 14:10:11;;;;;;;7.40;4.95;;;;;;;-6.39;100.00;91001.75;5052145;28;20090;-68
2022/01/23 14:12:37;;;;;;;11.57;6.30;;;;;;;-6.32;100.00;90993.94;5052384;28;20049;-69
2022/01/23 14:15:08;;;;;;;13.57;7.03;;;;;;;-6.31;100.00;90991.16;5051625;28;20040;-70
2022/01/23 14:17:39;;;;;;;20.02;7.05;;;;;;;-6.54;100.00;90976.13;5052043;28;20048;-72
2022/01/23 14:20:16;;;;;;;13.75;7.28;;;;;;;-6.54;100.00;90989.06;5043444;28;20130;-69
2022/01/23 14:22:48;;;;;;;7.28;4.35;;;;;;;-6.52;100.00;90989.66;5031096;28;20095;-71
2022/01/23 14:25:19;;;;;;;8.70;5.00;;;;;;;-6.44;100.00;90992.03;5032153;28;20100;-70
2022/01/23 14:27:47;;;;;;;12.35;7.00;;;;;;;-6.47;100.00;90989.03;5031845;28;20102;-71
2022/01/23 14:30:20;;;;;;;8.38;5.22;;;;;;;-6.56;100.00;90987.69;5042470;28;20495;-71
2022/01/23 14:32:50;;;;;;;13.82;7.40;;;;;;;-6.50;100.00;90990.22;5046695;28;20410;-71
2022/01/23 14:35:20;;;;;;;9.38;5.15;;;;;;;-6.49;100.00;90985.84;5040796;28;20041;-71
2022/01/23 14:37:47;;;;;;;10.73;5.47;;;;;;;-6.39;100.00;90993.97;5039299;28;20071;-71
2022/01/23 14:40:20;;;;;;;8.90;5.13;;;;;;;-6.52;100.00;90989.66;5039956;28;20045;-69
2022/01/23 14:42:59;;;;;;;;;;;;;;;-6.51;100.00;90996.41;5040731;28;20037;-72
2022/01/23 14:45:26;;;;;;;12.13;5.85;;;;;;;-6.52;100.00;91007.75;5046580;28;19916;-67
2022/01/23 14:47:51;;;;;;;9.27;4.72;;;;;;;-6.63;100.00;91003.22;5042650;28;20426;-69
2022/01/23 14:50:19;;;;;;;8.30;4.93;;;;;;;-6.64;100.00;90993.88;5039971;28;20033;-70
2022/01/23 14:52:48;;;;;;;9.18;5.15;;;;;;;-6.68;100.00;90998.66;5038746;28;20037;-71
2022/01/23 14:55:13;;;;;;;9.82;6.28;;;;;;;-6.64;100.00;90999.03;5036859;28;20063;-71
2022/01/23 14:57:41;;;;;;;7.22;4.78;;;;;;;-6.61;100.00;91006.41;5031470;28;20538;-69
2022/01/23 15:00:09;;;;;;;25.90;13.43;;;;;;;-6.92;100.00;90996.75;5029642;28;20076;-70
2022/01/23 15:02:35;;;;;;;8.27;4.90;;;;;;;-6.83;100.00;91008.47;5031499;28;20133;-68
2022/01/23 15:05:03;;;;;;;9.73;5.97;;;;;;;-6.97;100.00;91006.91;5031244;28;20514;-68
2022/01/23 15:07:42;;;;;;;10.27;5.32;;;;;;;-7.01;100.00;91006.53;5029891;28;20037;-69
2022/01/23 15:10:10;;;;;;;8.27;5.05;;;;;;;-6.97;100.00;91010.28;5031563;28;20038;-68